Time;durP1;ratioP1;P1;durP2;ratioP2;P2;SDS_P1;SDS_P2;PMS_P1;PMS_P2;Temp;Humidity;BMP_temperature;BMP_pressure;BME280_temperature;BME280_humidity;BME280_pressure;Samples;Min_cycle;Max_cycle;Signal;HPM_P1;HPM_P2
2021/03/10 00:02:21;;;;;;;11.35;6.88;;;;;;;4.27;100.00;101176.38;10178021;29;20056;-68
2021/03/10 00:07:38;;;;;;;10.20;7.32;;;;;;;4.28;100.00;101191.16;10177703;29;20051;-69
2021/03/10 00:12:51;;;;;;;12.30;10.50;;;;;;;4.16;100.00;101166.06;10178662;29;20370;-69
2021/03/10 00:17:52;;;;;;;10.70;8.30;;;;;;;4.17;100.00;101170.41;10176745;29;20051;-69
2021/03/10 00:22:54;;;;;;;12.25;8.52;;;;;;;4.20;100.00;101180.81;10184658;29;20063;-68
2021/03/10 00:27:55;;;;;;;9.95;8.18;;;;;;;4.20;100.00;101188.63;10184322;29;20055;-67
2021/03/10 00:32:56;;;;;;;11.32;8.57;;;;;;;4.10;100.00;101178.31;10184493;29;20052;-68
2021/03/10 00:38:03;;;;;;;11.93;8.52;;;;;;;4.18;100.00;101195.59;10172509;29;20104;-67
2021/03/10 00:43:04;;;;;;;11.95;9.05;;;;;;;4.12;100.00;101192.16;10144071;29;20152;-68
2021/03/10 00:48:05;;;;;;;11.45;9.20;;;;;;;3.96;100.00;101180.13;10143711;29;20048;-68
2021/03/10 00:53:08;;;;;;;11.35;9.38;;;;;;;4.00;100.00;101189.69;10145909;29;20048;-68
2021/03/10 00:58:09;;;;;;;14.20;8.52;;;;;;;3.93;100.00;101175.84;10144674;29;20037;-67
2021/03/10 01:03:10;;;;;;;9.82;7.32;;;;;;;3.81;100.00;101173.31;10163228;29;20084;-68
2021/03/10 01:08:21;;;;;;;9.35;7.80;;;;;;;3.81;100.00;101176.78;10182935;29;20036;-68
2021/03/10 01:13:22;;;;;;;8.55;7.18;;;;;;;3.74;100.00;101182.94;10184076;29;20107;-68
2021/03/10 01:18:24;;;;;;;9.85;6.72;;;;;;;3.75;100.00;101204.63;10181958;29;20048;-68
2021/03/10 01:23:25;;;;;;;8.38;7.10;;;;;;;3.77;100.00;101198.53;10183059;29;20048;-68
2021/03/10 01:28:26;;;;;;;7.93;6.53;;;;;;;3.90;100.00;101214.94;10182145;29;20044;-68
2021/03/10 01:33:28;;;;;;;7.80;6.63;;;;;;;3.88;100.00;101218.44;10182370;29;20052;-67
2021/03/10 01:38:43;;;;;;;;;;;;;;;3.81;100.00;101213.28;10182303;29;20473;-66
2021/03/10 01:43:44;;;;;;;8.52;6.68;;;;;;;3.78;100.00;101209.81;10181900;29;19927;-67
2021/03/10 01:48:46;;;;;;;10.27;6.75;;;;;;;3.92;100.00;101226.25;10181686;29;20517;-68
2021/03/10 01:53:47;;;;;;;10.50;7.55;;;;;;;4.23;100.00;101231.22;10196291;29;20036;-69
2021/03/10 01:58:48;;;;;;;9.43;7.30;;;;;;;4.40;100.00;101219.75;10181283;29;20438;-68
2021/03/10 02:03:49;;;;;;;9.52;7.88;;;;;;;4.45;100.00;101191.00;10165325;29;20066;-68
2021/03/10 02:09:27;;;;;;;10.15;8.73;;;;;;;4.38;100.00;101161.50;10161866;29;20044;-69
2021/03/10 02:14:47;;;;;;;8.30;6.88;;;;;;;4.37;100.00;101154.56;10142351;29;20048;-69
2021/03/10 02:20:29;;;;;;;9.13;8.23;;;;;;;4.41;100.00;101152.78;10141097;29;20104;-67
2021/03/10 02:26:03;;;;;;;11.23;8.13;;;;;;;4.37;100.00;101141.50;10141285;29;20096;-68
2021/03/10 02:31:07;;;;;;;12.50;9.65;;;;;;;4.35;100.00;101140.66;10141781;29;20053;-68
2021/03/10 02:36:13;;;;;;;10.93;9.52;;;;;;;4.33;100.00;101138.97;10140910;29;20040;-69
2021/03/10 02:41:16;;;;;;;14.30;10.40;;;;;;;4.28;100.00;101130.31;10175469;29;20056;-68
2021/03/10 02:46:19;;;;;;;20.73;13.30;;;;;;;4.15;100.00;101111.31;10179795;29;20036;-67
2021/03/10 02:51:21;;;;;;;22.60;13.20;;;;;;;3.96;100.00;101108.03;10179605;29;20044;-68
2021/03/10 02:56:22;;;;;;;15.88;12.50;;;;;;;3.94;100.00;101101.09;10179625;29;20104;-68
2021/03/10 03:01:25;;;;;;;14.73;12.40;;;;;;;3.88;100.00;101104.63;10179497;29;20048;-68
2021/03/10 03:06:26;;;;;;;18.33;13.07;;;;;;;3.81;100.00;101108.16;10178494;29;20466;-67
2021/03/10 03:11:28;;;;;;;17.42;12.30;;;;;;;3.67;100.00;101105.69;10141303;29;20051;-67
2021/03/10 03:16:30;;;;;;;15.75;12.80;;;;;;;3.57;100.00;101108.38;10139543;29;20463;-68
2021/03/10 03:21:34;;;;;;;15.88;12.50;;;;;;;3.44;100.00;101097.16;10139573;29;20104;-68
2021/03/10 03:26:36;;;;;;;18.88;11.63;;;;;;;3.34;100.00;101112.00;10175287;29;20048;-67
2021/03/10 03:31:37;;;;;;;17.35;13.18;;;;;;;3.27;100.00;101118.09;10177198;29;20056;-68
2021/03/10 03:36:40;;;;;;;18.27;13.02;;;;;;;3.16;100.00;101116.47;10178771;29;20044;-67
2021/03/10 03:41:41;;;;;;;18.13;13.60;;;;;;;2.92;100.00;101112.25;10139328;29;20060;-69
2021/03/10 03:46:42;;;;;;;14.95;12.38;;;;;;;2.90;100.00;101137.41;10138445;29;20037;-68
2021/03/10 03:51:44;;;;;;;18.17;13.20;;;;;;;2.90;100.00;101151.28;10140001;29;20359;-68
2021/03/10 03:56:45;;;;;;;19.27;13.60;;;;;;;2.88;100.00;101154.75;10143667;29;20340;-68
2021/03/10 04:01:46;;;;;;;16.60;14.10;;;;;;;2.89;100.00;101175.56;10146778;29;20359;-68
2021/03/10 04:06:49;;;;;;;17.58;12.38;;;;;;;3.00;100.00;101193.75;10146853;29;20048;-68
2021/03/10 04:11:50;;;;;;;16.17;13.13;;;;;;;3.02;100.00;101208.47;10186372;29;20115;-68
2021/03/10 04:16:51;;;;;;;22.48;16.23;;;;;;;3.13;100.00;101218.84;10184470;29;20104;-68
2021/03/10 04:21:52;;;;;;;21.67;18.38;;;;;;;3.30;100.00;101210.97;10183953;29;20442;-68
2021/03/10 04:26:53;;;;;;;24.10;19.58;;;;;;;3.37;100.00;101215.28;10184295;29;20077;-68
2021/03/10 04:32:20;;;;;;;23.17;18.52;;;;;;;3.48;100.00;101217.81;10183934;29;20044;-68
2021/03/10 04:37:22;;;;;;;26.10;20.65;;;;;;;3.57;100.00;101244.69;10184540;29;20142;-68
2021/03/10 04:42:23;;;;;;;23.80;18.52;;;;;;;3.62;100.00;101236.84;10183700;29;20051;-68
2021/03/10 04:47:24;;;;;;;23.95;19.55;;;;;;;3.55;100.00;101241.22;10184226;29;20044;-68
2021/03/10 04:52:26;;;;;;;24.98;18.48;;;;;;;3.54;100.00;101246.44;10184570;29;20055;-68
2021/03/10 04:57:27;;;;;;;30.42;24.02;;;;;;;3.44;100.00;101238.66;10183894;29;20072;-68
2021/03/10 05:02:30;;;;;;;26.08;22.17;;;;;;;3.43;100.00;101254.34;10183858;29;20052;-68
2021/03/10 05:07:32;;;;;;;27.70;21.88;;;;;;;3.54;100.00;101262.06;10182504;29;20457;-68
2021/03/10 05:12:33;;;;;;;31.90;23.92;;;;;;;3.52;100.00;101275.09;10183899;29;20119;-68
2021/03/10 05:17:35;;;;;;;35.17;25.73;;;;;;;3.49;100.00;101269.91;10182121;29;20095;-68
2021/03/10 05:22:37;;;;;;;31.95;25.50;;;;;;;3.63;100.00;101286.34;10182196;29;20119;-67
2021/03/10 05:27:38;;;;;;;31.60;23.70;;;;;;;3.66;100.00;101296.75;10183029;29;20040;-68
2021/03/10 05:32:39;;;;;;;36.95;26.52;;;;;;;3.79;100.00;101310.56;10181972;29;20437;-68
2021/03/10 05:37:41;;;;;;;28.17;22.70;;;;;;;3.74;100.00;101320.16;10173957;29;20045;-68
2021/03/10 05:42:44;;;;;;;33.17;23.77;;;;;;;3.66;100.00;101306.31;10143152;29;20048;-68
2021/03/10 05:47:45;;;;;;;33.95;24.05;;;;;;;3.64;100.00;101313.25;10143209;29;20045;-68
2021/03/10 05:52:48;;;;;;;35.95;26.48;;;;;;;3.60;100.00;101301.13;10143011;29;20060;-69
2021/03/10 05:57:49;;;;;;;36.20;26.63;;;;;;;3.61;100.00;101302.84;10142556;29;20044;-68
2021/03/10 06:02:52;;;;;;;32.63;24.63;;;;;;;3.66;100.00;101299.38;10141411;29;20064;-69
2021/03/10 06:08:04;;;;;;;37.08;25.90;;;;;;;3.72;100.00;101301.06;10151285;29;20147;-67
2021/03/10 06:13:17;;;;;;;31.13;24.92;;;;;;;3.73;100.00;101303.66;10179844;29;20067;-68
2021/03/10 06:18:37;;;;;;;31.00;23.05;;;;;;;3.87;100.00;101302.72;10180545;29;20055;-69
2021/03/10 06:23:56;;;;;;;38.00;28.60;;;;;;;4.02;100.00;101306.09;10180431;29;20044;-68
2021/03/10 06:28:59;;;;;;;38.88;28.15;;;;;;;3.89;100.00;101282.72;10152834;29;20411;-64
2021/03/10 06:34:09;;;;;;;38.58;30.02;;;;;;;3.91;100.00;101279.25;10162331;29;20100;-69
2021/03/10 06:39:12;;;;;;;36.30;25.98;;;;;;;3.93;100.00;101272.28;10153789;29;20040;-68
2021/03/10 06:44:19;;;;;;;39.40;27.55;;;;;;;4.01;100.00;101280.91;10154603;29;20064;-70
2021/03/10 06:49:21;;;;;;;40.75;28.52;;;;;;;4.13;100.00;101280.81;10142023;29;20041;-70
2021/03/10 06:54:27;;;;;;;37.80;26.73;;;;;;;4.12;100.00;101279.09;10152432;29;20131;-68
2021/03/10 06:59:48;;;;;;;40.05;29.17;;;;;;;4.26;100.00;101280.75;10175621;29;20108;-68
2021/03/10 07:04:55;;;;;;;43.65;29.02;;;;;;;4.25;100.00;101277.25;10154716;29;20455;-68
2021/03/10 07:09:57;;;;;;;43.50;30.70;;;;;;;4.41;100.00;101286.69;10150125;29;20048;-69
2021/03/10 07:15:01;;;;;;;45.83;31.30;;;;;;;4.46;100.00;101290.13;10172509;29;20048;-68
2021/03/10 07:20:03;;;;;;;43.92;31.70;;;;;;;4.45;100.00;101282.31;10153081;29;20049;-69
2021/03/10 07:25:20;;;;;;;42.67;29.27;;;;;;;4.30;100.00;101264.19;10143511;29;20485;-68
2021/03/10 07:30:36;;;;;;;40.72;29.17;;;;;;;4.33;100.00;101290.25;10150674;29;20054;-68
2021/03/10 07:35:49;;;;;;;;;;;;;;;4.29;100.00;101291.13;10169633;29;20048;-71
2021/03/10 07:40:52;;;;;;;44.63;29.40;;;;;;;4.25;100.00;101294.66;10141177;29;19927;-70
2021/03/10 07:45:54;;;;;;;41.58;27.67;;;;;;;4.15;100.00;101294.72;10138430;29;20052;-70
2021/03/10 07:50:55;;;;;;;41.83;29.90;;;;;;;4.27;100.00;101303.34;10145008;29;20457;-69
2021/03/10 07:55:56;;;;;;;47.67;31.23;;;;;;;4.38;100.00;101314.53;10157052;29;20060;-70
2021/03/10 08:00:58;;;;;;;44.28;28.90;;;;;;;4.43;100.00;101315.38;10154027;29;20104;-66
2021/03/10 08:06:06;;;;;;;44.33;29.13;;;;;;;4.56;100.00;101320.47;10161223;29;20036;-71
2021/03/10 08:11:09;;;;;;;52.05;33.65;;;;;;;4.87;100.00;101333.25;10167018;29;20062;-70
2021/03/10 08:16:11;;;;;;;46.00;31.77;;;;;;;5.01;100.00;101322.69;10172976;29;20044;-71
2021/03/10 08:21:16;;;;;;;49.85;32.90;;;;;;;5.08;100.00;101306.94;10171080;29;20056;-71
2021/03/10 08:26:18;;;;;;;52.20;35.08;;;;;;;5.28;100.00;101289.28;10170883;29;20071;-70
2021/03/10 08:31:19;;;;;;;44.63;30.38;;;;;;;5.37;100.00;101280.47;10144945;29;20135;-70
2021/03/10 08:36:31;;;;;;;47.45;33.33;;;;;;;5.65;100.00;101275.78;10140905;29;20140;-68
2021/03/10 08:41:44;;;;;;;46.63;32.05;;;;;;;5.70;100.00;101258.28;10175724;29;20048;-68
2021/03/10 08:46:46;;;;;;;44.53;29.98;;;;;;;5.77;100.00;101241.63;10156427;29;20105;-70
2021/03/10 08:52:02;;;;;;;46.78;30.20;;;;;;;5.95;100.00;101240.50;10148769;29;20415;-70
2021/03/10 08:57:04;;;;;;;54.33;37.13;;;;;;;6.32;100.00;101253.88;10143658;29;20044;-71
2021/03/10 09:02:05;;;;;;;53.55;35.28;;;;;;;6.34;100.00;101232.03;10143120;29;20077;-71
2021/03/10 09:07:08;;;;;;;48.83;34.10;;;;;;;6.30;100.00;101198.97;10150177;29;20052;-67
2021/03/10 09:12:10;;;;;;;47.55;33.60;;;;;;;6.42;100.00;101193.53;10143581;29;20063;-71
2021/03/10 09:17:16;;;;;;;43.70;30.73;;;;;;;6.48;100.00;101187.31;10127283;29;20082;-71
2021/03/10 09:22:23;;;;;;;46.72;32.35;;;;;;;6.64;100.00;101175.66;10143002;29;20052;-72
2021/03/10 09:28:04;;;;;;;52.58;34.83;;;;;;;7.06;100.00;101170.44;10142374;29;20045;-71
2021/03/10 09:33:17;;;;;;;51.40;34.60;;;;;;;7.01;100.00;101160.09;10137546;29;20047;-71
2021/03/10 09:38:20;;;;;;;43.70;32.10;;;;;;;7.38;100.00;101164.53;10158633;29;20059;-68
2021/03/10 09:43:25;;;;;;;46.40;32.63;;;;;;;7.20;100.00;101123.84;10142058;29;20399;-72
2021/03/10 09:48:39;;;;;;;44.78;31.70;;;;;;;7.28;100.00;101132.41;10166844;29;20139;-71
2021/03/10 09:53:51;;;;;;;46.33;32.03;;;;;;;7.52;100.00;101126.63;10140953;29;20048;-71
2021/03/10 09:59:06;;;;;;;42.90;31.40;;;;;;;7.73;100.00;101117.38;10127159;29;20490;-71
2021/03/10 10:04:14;;;;;;;42.20;30.98;;;;;;;7.70;100.00;101103.50;10141483;29;20049;-71
2021/03/10 10:09:17;;;;;;;38.33;29.60;;;;;;;8.44;100.00;101132.22;10160253;29;20052;-70
2021/03/10 10:14:18;;;;;;;37.97;27.60;;;;;;;8.47;97.71;101106.72;10180535;29;20088;-70
2021/03/10 10:19:19;;;;;;;36.53;25.15;;;;;;;8.83;93.52;101083.81;10166447;29;20469;-68
2021/03/10 10:24:22;;;;;;;33.13;25.38;;;;;;;9.28;90.18;101104.38;10181316;29;20508;-69
2021/03/10 10:29:24;;;;;;;27.45;19.13;;;;;;;9.41;86.30;101071.50;10182626;29;20079;-70
2021/03/10 10:34:26;;;;;;;27.10;19.65;;;;;;;8.95;83.81;101035.28;10151366;29;20482;-71
2021/03/10 10:39:28;;;;;;;22.23;15.95;;;;;;;9.26;82.05;101051.81;10139957;29;20119;-71
2021/03/10 10:44:30;;;;;;;23.13;19.13;;;;;;;9.17;82.10;101040.75;10167284;29;20059;-71
2021/03/10 10:49:32;;;;;;;24.15;17.88;;;;;;;8.95;81.05;101024.78;10183792;29;20107;-73
2021/03/10 10:54:35;;;;;;;23.48;16.50;;;;;;;9.99;79.29;101074.84;10177215;29;20052;-70
2021/03/10 10:59:36;;;;;;;20.92;14.60;;;;;;;10.12;76.68;101023.50;10176733;29;20766;-68
2021/03/10 11:04:44;;;;;;;21.00;15.13;;;;;;;10.00;75.97;101016.88;10178001;29;20429;-70
2021/03/10 11:09:49;;;;;;;19.15;13.77;;;;;;;10.37;75.38;101018.22;10161837;29;20044;-70
2021/03/10 11:14:55;;;;;;;20.27;15.05;;;;;;;9.85;74.81;100988.47;10176632;29;20088;-69
2021/03/10 11:20:15;;;;;;;19.40;14.50;;;;;;;9.66;75.53;100961.06;10162686;29;20152;-68
2021/03/10 11:25:17;;;;;;;19.58;13.90;;;;;;;9.68;75.81;100964.53;10136799;29;20064;-71
2021/03/10 11:30:19;;;;;;;17.27;13.32;;;;;;;10.08;75.47;100963.97;10137160;29;20430;-70
2021/03/10 11:35:23;;;;;;;16.58;11.45;;;;;;;10.29;73.38;100955.31;10137641;29;20377;-70
2021/03/10 11:40:28;;;;;;;15.52;10.68;;;;;;;10.46;71.69;100949.41;10137505;29;20044;-69
2021/03/10 11:45:30;;;;;;;11.82;8.27;;;;;;;11.02;70.54;100974.41;10136033;29;20052;-69
2021/03/10 11:50:35;;;;;;;12.25;7.40;;;;;;;10.92;68.66;100932.63;10137738;29;20470;-70
2021/03/10 11:55:38;;;;;;;7.65;6.20;;;;;;;11.08;65.54;100930.22;10137699;29;20056;-68
2021/03/10 12:00:41;;;;;;;10.02;6.22;;;;;;;11.15;64.82;100910.59;10137059;29;20435;-68
2021/03/10 12:05:48;;;;;;;9.40;5.80;;;;;;;10.75;65.45;100901.69;10127448;29;20053;-67
2021/03/10 12:10:50;;;;;;;8.45;5.45;;;;;;;11.12;64.24;100895.78;10175106;29;20048;-69
2021/03/10 12:15:53;;;;;;;7.63;4.90;;;;;;;11.07;64.89;100870.50;10150704;29;20052;-69
2021/03/10 12:21:10;;;;;;;7.55;5.45;;;;;;;11.22;65.73;100890.94;10145823;29;20040;-69
2021/03/10 12:26:12;;;;;;;8.80;5.70;;;;;;;11.60;66.14;100884.91;10145333;29;20506;-68
2021/03/10 12:31:40;;;;;;;9.13;5.70;;;;;;;11.97;64.12;100881.47;10144946;29;20140;-68
2021/03/10 12:36:43;;;;;;;8.77;6.50;;;;;;;11.57;63.29;100853.34;10145539;29;20044;-68
2021/03/10 12:41:44;;;;;;;9.10;6.45;;;;;;;11.77;62.60;100841.94;10129634;29;20096;-68
2021/03/10 12:46:46;;;;;;;10.93;8.02;;;;;;;11.68;64.13;100848.47;10180823;29;20036;-68
2021/03/10 12:51:48;;;;;;;9.75;7.93;;;;;;;11.23;64.49;100813.53;10184730;29;20143;-68
2021/03/10 12:56:51;;;;;;;12.27;9.20;;;;;;;11.31;65.14;100804.38;10199436;29;20040;-68
2021/03/10 13:01:53;;;;;;;13.95;9.68;;;;;;;11.14;65.69;100779.66;10184483;29;20044;-68
2021/03/10 13:06:54;;;;;;;16.70;9.65;;;;;;;11.51;65.48;100805.28;10183029;29;20439;-68
2021/03/10 13:11:55;;;;;;;13.80;9.52;;;;;;;11.33;64.71;100762.97;10184187;29;20450;-68
2021/03/10 13:17:00;;;;;;;13.77;10.65;;;;;;;11.80;64.43;100804.00;10145464;29;20096;-68
2021/03/10 13:22:04;;;;;;;11.95;10.18;;;;;;;11.53;64.31;100751.53;10143620;29;20059;-68
2021/03/10 13:27:05;;;;;;;13.00;11.13;;;;;;;11.53;63.77;100740.13;10143498;29;20477;-68
2021/03/10 13:32:11;;;;;;;12.55;10.55;;;;;;;12.43;62.02;100774.53;10143234;29;20052;-68
2021/03/10 13:37:12;;;;;;;15.23;12.35;;;;;;;12.49;61.05;100736.34;10144229;29;20051;-68
2021/03/10 13:42:14;;;;;;;18.10;12.15;;;;;;;11.92;63.17;100708.38;10144126;29;20048;-67
2021/03/10 13:47:15;;;;;;;16.58;11.68;;;;;;;11.77;62.70;100691.50;10142818;29;20088;-69
2021/03/10 13:52:16;;;;;;;13.40;11.55;;;;;;;11.75;63.72;100688.06;10143684;29;20081;-69
2021/03/10 13:57:18;;;;;;;15.10;13.20;;;;;;;11.67;63.52;100685.75;10126610;29;20049;-68
2021/03/10 14:02:24;;;;;;;17.10;13.52;;;;;;;11.70;64.15;100687.41;10142688;29;20064;-68
2021/03/10 14:07:26;;;;;;;15.57;12.43;;;;;;;11.37;65.40;100671.38;10142180;29;20434;-67
2021/03/10 14:12:27;;;;;;;15.32;12.60;;;;;;;11.25;66.32;100671.94;10143917;29;20060;-67
2021/03/10 14:17:28;;;;;;;15.48;11.93;;;;;;;11.12;66.17;100658.47;10177964;29;20059;-71
2021/03/10 14:22:29;;;;;;;16.30;12.75;;;;;;;11.19;66.39;100672.22;10178798;29;20477;-72
2021/03/10 14:27:31;;;;;;;16.30;12.10;;;;;;;11.14;66.71;100663.66;10178535;29;20044;-71
2021/03/10 14:32:32;;;;;;;14.52;12.82;;;;;;;10.99;66.39;100652.03;10178918;29;20406;-71
2021/03/10 14:37:34;;;;;;;13.52;11.07;;;;;;;10.88;65.81;100647.22;10178993;29;20058;-71
2021/03/10 14:42:37;;;;;;;13.23;9.55;;;;;;;10.76;65.64;100615.31;10178950;29;20040;-70
2021/03/10 14:47:39;;;;;;;14.68;10.30;;;;;;;10.69;64.53;100606.84;10178823;29;20044;-70
2021/03/10 14:52:40;;;;;;;13.73;11.15;;;;;;;10.61;64.99;100575.56;10178809;29;20055;-70
2021/03/10 14:57:42;;;;;;;13.32;10.73;;;;;;;10.61;65.98;100580.81;10162123;29;20107;-71
2021/03/10 15:02:43;;;;;;;14.23;10.70;;;;;;;10.59;68.43;100582.66;10177651;29;20044;-70
2021/03/10 15:07:45;;;;;;;14.23;11.40;;;;;;;10.53;66.61;100568.91;10177721;29;20103;-70
2021/03/10 15:12:49;;;;;;;15.70;11.60;;;;;;;10.43;66.08;100554.44;10178043;29;20059;-69
2021/03/10 15:17:50;;;;;;;13.60;10.95;;;;;;;10.38;67.41;100549.38;10160675;29;20052;-70
2021/03/10 15:22:51;;;;;;;13.48;11.38;;;;;;;10.30;67.21;100538.31;10170259;29;20100;-70
2021/03/10 15:27:55;;;;;;;17.73;11.07;;;;;;;10.36;68.62;100551.25;10138127;29;20367;-70
2021/03/10 15:32:56;;;;;;;14.57;11.25;;;;;;;10.30;68.52;100554.13;10138839;29;20060;-70
2021/03/10 15:37:57;;;;;;;13.77;11.13;;;;;;;10.25;68.19;100564.88;10138126;29;20041;-70
2021/03/10 15:42:59;;;;;;;14.75;10.40;;;;;;;10.13;67.14;100539.03;10144739;29;20044;-70
2021/03/10 15:48:00;;;;;;;16.02;13.52;;;;;;;10.10;67.44;100536.53;10176550;29;20067;-70
2021/03/10 15:53:02;;;;;;;13.85;11.10;;;;;;;10.00;68.51;100535.22;10176786;29;20095;-70
2021/03/10 15:58:04;;;;;;;15.30;13.30;;;;;;;9.93;69.07;100523.25;10176289;29;20052;-70
2021/03/10 16:03:07;;;;;;;14.55;11.25;;;;;;;9.79;70.43;100504.56;10175696;29;20056;-70
2021/03/10 16:08:08;;;;;;;13.77;11.48;;;;;;;9.79;69.42;100508.03;10175251;29;20454;-70
2021/03/10 16:13:09;;;;;;;16.23;11.98;;;;;;;9.65;70.97;100502.50;10160669;29;20048;-71
2021/03/10 16:18:11;;;;;;;18.98;13.20;;;;;;;9.65;71.17;100499.03;10158890;29;20052;-70
2021/03/10 16:23:12;;;;;;;18.20;13.65;;;;;;;9.56;71.71;100481.84;10175689;29;20478;-69
2021/03/10 16:28:13;;;;;;;21.13;15.93;;;;;;;9.52;73.16;100482.91;10175334;29;20051;-69
2021/03/10 16:33:16;;;;;;;23.95;16.55;;;;;;;9.47;73.43;100485.72;10176366;29;20052;-70
2021/03/10 16:38:17;;;;;;;28.05;17.17;;;;;;;9.45;74.18;100448.13;10176389;29;20450;-70
2021/03/10 16:43:18;;;;;;;22.90;14.68;;;;;;;9.46;72.75;100472.63;10175745;29;20138;-70
2021/03/10 16:48:20;;;;;;;23.38;16.52;;;;;;;9.39;72.70;100469.41;10174868;29;20040;-70
2021/03/10 16:53:22;;;;;;;15.05;12.80;;;;;;;9.27;73.45;100472.56;10176112;29;20409;-70
2021/03/10 16:58:23;;;;;;;17.80;13.48;;;;;;;9.21;74.36;100464.91;10175036;29;20068;-70
2021/03/10 17:03:26;;;;;;;23.67;15.25;;;;;;;9.28;73.79;100463.75;10179522;29;20054;-70
2021/03/10 17:08:28;;;;;;;21.73;14.68;;;;;;;9.28;72.35;100463.75;10181802;29;20052;-71
2021/03/10 17:13:30;;;;;;;19.52;14.98;;;;;;;9.14;73.33;100450.31;10182853;29;20071;-70
2021/03/10 17:18:31;;;;;;;21.73;14.52;;;;;;;9.25;72.92;100463.03;10181570;29;20129;-71
2021/03/10 17:23:32;;;;;;;21.63;14.85;;;;;;;9.20;72.80;100450.09;10181550;29;20430;-70
2021/03/10 17:28:34;;;;;;;25.63;16.35;;;;;;;9.10;73.51;100446.97;10181551;29;20044;-70
2021/03/10 17:33:35;;;;;;;23.77;16.73;;;;;;;8.99;74.34;100436.03;10182286;29;20067;-71
2021/03/10 17:38:37;;;;;;;22.17;16.00;;;;;;;9.06;73.72;100458.50;10180661;29;20067;-71
2021/03/10 17:43:38;;;;;;;19.00;15.95;;;;;;;8.93;74.00;100430.16;10181099;29;20525;-71
2021/03/10 17:48:39;;;;;;;23.63;16.25;;;;;;;8.96;73.89;100437.91;10180636;29;20043;-70
2021/03/10 17:53:41;;;;;;;18.98;14.98;;;;;;;8.92;74.16;100423.19;10181099;29;20111;-70
2021/03/10 17:58:43;;;;;;;20.63;15.02;;;;;;;8.93;74.15;100424.91;10160827;29;20151;-71
2021/03/10 18:03:45;;;;;;;22.33;16.00;;;;;;;8.85;75.00;100405.97;10142406;29;20045;-71
2021/03/10 18:08:46;;;;;;;24.45;17.42;;;;;;;8.95;74.73;100407.31;10144670;29;20067;-71
2021/03/10 18:13:47;;;;;;;25.00;15.38;;;;;;;8.87;74.86;100398.91;10179537;29;20377;-71
2021/03/10 18:18:49;;;;;;;21.15;15.70;;;;;;;8.74;75.67;100386.25;10179653;29;20099;-71
2021/03/10 18:23:50;;;;;;;25.65;16.95;;;;;;;8.89;74.35;100397.03;10179892;29;20048;-71
2021/03/10 18:28:51;;;;;;;25.88;16.67;;;;;;;8.78;74.66;100378.25;10146552;29;20060;-71
2021/03/10 18:33:53;;;;;;;24.65;17.92;;;;;;;8.86;73.89;100384.91;10141437;29;20068;-71
2021/03/10 18:38:55;;;;;;;24.63;16.70;;;;;;;8.83;73.86;100374.50;10158990;29;20048;-71
2021/03/10 18:43:57;;;;;;;21.05;15.57;;;;;;;8.75;74.11;100369.56;10177742;29;20501;-71
2021/03/10 18:48:59;;;;;;;21.92;15.52;;;;;;;8.73;74.13;100363.53;10177166;29;20044;-71
2021/03/10 18:54:00;;;;;;;21.40;15.27;;;;;;;8.75;73.20;100369.56;10178503;29;20040;-71
2021/03/10 18:59:02;;;;;;;19.00;14.77;;;;;;;8.78;72.31;100354.63;10161384;29;20056;-70
2021/03/10 19:04:03;;;;;;;21.05;16.05;;;;;;;8.72;72.23;100350.44;10177759;29;20055;-71
2021/03/10 19:09:05;;;;;;;20.25;15.52;;;;;;;8.65;72.48;100322.72;10160513;29;20045;-70
2021/03/10 19:14:06;;;;;;;21.90;15.77;;;;;;;8.59;73.19;100315.13;10176428;29;20056;-71
2021/03/10 19:19:08;;;;;;;21.95;16.58;;;;;;;8.59;73.05;100294.97;10177407;29;20127;-71
2021/03/10 19:24:09;;;;;;;20.40;16.88;;;;;;;8.63;73.01;100288.66;10176568;29;20506;-71
2021/03/10 19:29:11;;;;;;;23.38;16.52;;;;;;;8.65;72.81;100278.94;10176964;29;20044;-71
2021/03/10 19:34:12;;;;;;;26.42;18.75;;;;;;;8.80;72.40;100282.69;10177284;29;20040;-70
2021/03/10 19:39:13;;;;;;;23.70;18.08;;;;;;;8.65;73.05;100271.06;10175481;29;20481;-71
2021/03/10 19:44:14;;;;;;;23.42;19.10;;;;;;;8.50;73.78;100257.72;10176757;29;20063;-71
2021/03/10 19:49:15;;;;;;;24.02;17.10;;;;;;;8.39;75.14;100252.91;10175910;29;20036;-71
2021/03/10 19:54:17;;;;;;;24.60;18.17;;;;;;;8.24;77.21;100262.22;10177052;29;20044;-71
2021/03/10 19:59:18;;;;;;;23.33;18.33;;;;;;;8.15;78.03;100257.34;10176321;29;20088;-71
2021/03/10 20:04:19;;;;;;;27.25;19.15;;;;;;;7.89;80.45;100242.63;10176846;29;20051;-71
2021/03/10 20:09:20;;;;;;;21.77;17.42;;;;;;;7.87;80.88;100254.09;10174963;29;20048;-71
2021/03/10 20:14:24;;;;;;;26.90;18.95;;;;;;;7.91;81.19;100274.91;10176224;29;20051;-71
2021/03/10 20:19:25;;;;;;;23.65;18.80;;;;;;;7.79;82.97;100262.25;10176115;29;20044;-70
2021/03/10 20:24:27;;;;;;;25.60;19.10;;;;;;;7.66;84.74;100255.78;10175946;29;20048;-71
2021/03/10 20:29:28;;;;;;;25.27;18.27;;;;;;;7.40;87.75;100245.41;10175812;29;20091;-71
2021/03/10 20:34:29;;;;;;;29.35;19.25;;;;;;;7.37;88.70;100246.38;10176127;29;20064;-71
2021/03/10 20:39:31;;;;;;;28.33;20.33;;;;;;;7.27;90.90;100252.03;10180793;29;20063;-71
2021/03/10 20:44:33;;;;;;;28.58;21.00;;;;;;;7.19;93.05;100263.66;10182982;29;20055;-71
2021/03/10 20:49:34;;;;;;;26.35;19.50;;;;;;;7.00;96.32;100244.25;10181055;29;20123;-70
2021/03/10 20:54:37;;;;;;;26.70;19.60;;;;;;;6.89;99.57;100243.75;10181702;29;20537;-71
2021/03/10 20:59:38;;;;;;;30.42;21.05;;;;;;;6.71;100.00;100244.38;10182577;29;20108;-70
2021/03/10 21:04:40;;;;;;;30.15;21.52;;;;;;;6.71;100.00;100240.00;10183107;29;20044;-70
2021/03/10 21:09:41;;;;;;;32.30;22.85;;;;;;;6.67;100.00;100235.81;10180749;29;20047;-71
2021/03/10 21:14:42;;;;;;;35.90;24.67;;;;;;;6.63;100.00;100230.69;10181075;29;20116;-71
2021/03/10 21:19:43;;;;;;;35.13;25.80;;;;;;;6.64;100.00;100237.66;10181374;29;20048;-71
2021/03/10 21:24:44;;;;;;;34.38;25.48;;;;;;;6.56;100.00;100224.84;10181358;29;20469;-70
2021/03/10 21:29:47;;;;;;;33.15;24.88;;;;;;;6.36;100.00;100214.19;10181639;29;20119;-71
2021/03/10 21:34:48;;;;;;;34.20;25.50;;;;;;;6.37;100.00;100227.19;10181334;29;20055;-71
2021/03/10 21:39:51;;;;;;;34.33;26.05;;;;;;;6.26;100.00;100213.63;10181254;29;20071;-70
2021/03/10 21:44:52;;;;;;;39.72;25.17;;;;;;;6.26;100.00;100205.78;10180684;29;20075;-70
2021/03/10 21:49:54;;;;;;;35.58;23.48;;;;;;;6.27;100.00;100207.50;10179363;29;20072;-71
2021/03/10 21:54:55;;;;;;;33.80;24.92;;;;;;;6.28;100.00;100206.56;10180554;29;20111;-71
2021/03/10 21:59:56;;;;;;;33.10;22.45;;;;;;;6.29;100.00;100203.06;10179530;29;20056;-70
2021/03/10 22:04:57;;;;;;;36.92;26.90;;;;;;;6.24;100.00;100194.53;10179567;29;20066;-70
2021/03/10 22:09:58;;;;;;;32.53;24.20;;;;;;;6.30;100.00;100175.13;10179064;29;20040;-70
2021/03/10 22:15:00;;;;;;;33.45;24.27;;;;;;;6.34;100.00;100161.06;10173090;29;20051;-71
2021/03/10 22:20:02;;;;;;;32.20;22.63;;;;;;;6.32;100.00;100150.66;10174401;29;20055;-71
2021/03/10 22:25:04;;;;;;;34.20;23.50;;;;;;;6.29;100.00;100136.81;10149729;29;20041;-70
2021/03/10 22:30:06;;;;;;;34.30;24.50;;;;;;;6.31;100.00;100130.63;10140728;29;20048;-71
2021/03/10 22:35:08;;;;;;;32.78;22.63;;;;;;;6.35;100.00;100129.63;10140108;29;20064;-70
2021/03/10 22:40:10;;;;;;;33.65;21.70;;;;;;;6.34;100.00;100121.81;10137596;29;20092;-71
2021/03/10 22:45:11;;;;;;;28.83;21.30;;;;;;;6.30;100.00;100110.59;10164013;29;20059;-70
2021/03/10 22:50:14;;;;;;;33.10;22.42;;;;;;;6.25;100.00;100085.50;10178055;29;20047;-70
2021/03/10 22:55:15;;;;;;;35.28;24.67;;;;;;;6.21;100.00;100061.22;10209165;29;20047;-71